Portada
METAR-TAF:

METAR-TAF

Aeroports :

Khartum, Sudan

latitud: 15-36N, longitud: 032-33E, altitud: 382 m

Observació

L'informe es va fer fa 23 minuts, a les 22:30 UTC
Vent 2 kt del Nord/Nord-Oest
Temperatura 27°C
Humitat 74%
Pressió 1012 hPa
Visibilitat 10 km o més
sense núvols per sota de 1500 mi sense presència de cumulonimbus.

METAR: HSSS 192230Z 33002KT CAVOK 27/22 Q1012 NOSIG

Hora: 01:53 (22:53 UTC)

Pronòstic

L'informe es va fer fa 5 hores i 53 minuts, a les 17:00 UTC
Pronòstic vàlid del 19 a les 18 UTC al 20 a les 24 UTC
Vent 8 kt del Sud amb ràfegues de 18 kt
Visibilitat 10 km o més
Escasses núvols a una alçada de 4000 ft
Cel ennuvolat a una alçada de 14000 ft
Temporalment
l' 19 a les 20 UTC al 19 a les 24 UTC
Visibilitat: 6000 m
Núvols disperses a una alçada de 4000 ft
Cel ennuvolat a una alçada de 14000 ft
xàfecs de pluja

TAF: HSSS 191700Z 1918/2024 18008G18KT 9999 FEW040 BKN140 TEMPO 1920/1924 6000 -SHRA SCT040 BKN140

Observacions i pronòstics meteorològics de més de 4000 aeroports (METAR i TAF).

Les estacions disponibles són els punts grocs i vermells al mapa.

Posi el ratolí al punt desitjat per veure el nom de l'estació.

Feu clic per veure les observacions i els pronòstics meteorològics.

Per canviar el mapa: feu clic els botons verds amb una creu de color negre per apropar; al botó verd amb un guió per allunyar la imatge; o en les fletxes verdes per a mapes adjacents.


METAR-TAF: